createdAt,value
2023-01-21T00:00:14.365Z,807.72
2023-01-21T00:01:14.091Z,807.77
2023-01-21T00:02:14.117Z,807.71
2023-01-21T00:03:14.119Z,807.68
2023-01-21T00:04:14.080Z,807.72
2023-01-21T00:05:14.087Z,807.68
2023-01-21T00:06:14.071Z,807.66
2023-01-21T00:07:14.067Z,807.68
2023-01-21T00:08:14.060Z,807.69
2023-01-21T00:09:14.067Z,807.68
2023-01-21T00:10:14.543Z,807.69
2023-01-21T00:11:14.061Z,807.70
2023-01-21T00:12:14.054Z,807.70
2023-01-21T00:13:14.074Z,807.68
2023-01-21T00:14:14.055Z,807.64
2023-01-21T00:15:14.038Z,807.67
2023-01-21T00:16:14.144Z,807.68
2023-01-21T00:17:14.032Z,807.70
2023-01-21T00:18:14.022Z,807.68
2023-01-21T00:19:14.048Z,807.68
2023-01-21T00:20:14.101Z,807.63
2023-01-21T00:21:14.013Z,807.63
2023-01-21T00:22:14.005Z,807.64
2023-01-21T00:23:14.008Z,807.67
2023-01-21T00:24:14.000Z,807.67
2023-01-21T00:25:13.998Z,807.63
2023-01-21T00:26:13.988Z,807.63
2023-01-21T00:27:13.991Z,807.63
2023-01-21T00:28:13.985Z,807.65
2023-01-21T00:29:13.984Z,807.66
2023-01-21T00:30:13.990Z,807.61
2023-01-21T00:31:14.170Z,807.60
2023-01-21T00:32:13.975Z,807.59
2023-01-21T00:33:13.964Z,807.55
2023-01-21T00:34:13.959Z,807.61
2023-01-21T00:35:13.978Z,807.61
2023-01-21T00:36:14.004Z,807.61
2023-01-21T00:37:13.964Z,807.59
2023-01-21T00:38:13.941Z,807.58
2023-01-21T00:39:13.937Z,807.57
2023-01-21T00:40:13.932Z,807.58
2023-01-21T00:41:13.936Z,807.60
2023-01-21T00:42:13.931Z,807.58
2023-01-21T00:43:13.921Z,807.60
2023-01-21T00:44:13.918Z,807.60
2023-01-21T00:45:13.918Z,807.57
2023-01-21T00:46:13.973Z,807.57
2023-01-21T00:47:13.917Z,807.59
2023-01-21T00:48:13.999Z,807.57
2023-01-21T00:49:13.894Z,807.55
2023-01-21T00:50:14.105Z,807.58
2023-01-21T00:51:13.996Z,807.55
2023-01-21T00:52:13.881Z,807.54
2023-01-21T00:53:13.884Z,807.52
2023-01-21T00:54:13.874Z,807.53
2023-01-21T00:55:13.874Z,807.56
2023-01-21T00:56:13.966Z,807.57
2023-01-21T00:57:13.943Z,807.58
2023-01-21T00:58:13.860Z,807.57
2023-01-21T00:59:13.854Z,807.56
2023-01-21T01:00:13.920Z,807.55
2023-01-21T01:01:13.894Z,807.51
2023-01-21T01:02:13.840Z,807.54
2023-01-21T01:03:13.844Z,807.56
2023-01-21T01:04:13.832Z,807.53
2023-01-21T01:05:13.825Z,807.54
2023-01-21T01:06:13.819Z,807.54
2023-01-21T01:07:13.840Z,807.56
2023-01-21T01:08:13.905Z,807.53
2023-01-21T01:09:13.812Z,807.52
2023-01-21T01:10:13.990Z,807.49
2023-01-21T01:11:13.805Z,807.52
2023-01-21T01:12:13.796Z,807.53
2023-01-21T01:13:13.793Z,807.54
2023-01-21T01:14:13.786Z,807.54
2023-01-21T01:15:13.784Z,807.54
2023-01-21T01:16:13.806Z,807.51
2023-01-21T01:17:13.780Z,807.50
2023-01-21T01:18:13.775Z,807.53
2023-01-21T01:19:13.764Z,807.53
2023-01-21T01:20:13.859Z,807.50
2023-01-21T01:21:13.760Z,807.51
2023-01-21T01:22:13.761Z,807.49
2023-01-21T01:23:13.779Z,807.46
2023-01-21T01:24:13.750Z,807.50
2023-01-21T01:25:13.749Z,807.45
2023-01-21T01:26:13.741Z,807.46
2023-01-21T01:27:13.748Z,807.45
2023-01-21T01:28:13.733Z,807.49
2023-01-21T01:29:13.738Z,807.46
2023-01-21T01:30:13.723Z,807.41
2023-01-21T01:31:13.969Z,807.41
2023-01-21T01:32:13.731Z,807.39
2023-01-21T01:33:13.707Z,807.46
2023-01-21T01:34:13.721Z,807.43
2023-01-21T01:35:13.700Z,807.38
2023-01-21T01:36:13.713Z,807.41
2023-01-21T01:37:13.693Z,807.40
2023-01-21T01:38:13.686Z,807.45
2023-01-21T01:39:13.706Z,807.44
2023-01-21T01:40:13.784Z,807.41
2023-01-21T01:41:13.672Z,807.39
2023-01-21T01:42:13.667Z,807.40
2023-01-21T01:43:13.670Z,807.40
2023-01-21T01:44:13.660Z,807.39
2023-01-21T01:45:13.659Z,807.33
2023-01-21T01:46:13.675Z,807.39
2023-01-21T01:47:13.648Z,807.37
2023-01-21T01:48:13.640Z,807.37
2023-01-21T01:49:13.658Z,807.36
2023-01-21T01:50:13.732Z,807.38
2023-01-21T01:51:13.668Z,807.36
2023-01-21T01:52:13.624Z,807.38
2023-01-21T01:53:13.624Z,807.36
2023-01-21T01:54:13.615Z,807.37
2023-01-21T01:55:13.636Z,807.37
2023-01-21T01:56:13.609Z,807.45
2023-01-21T01:57:13.603Z,807.37
2023-01-21T01:58:13.607Z,807.38
2023-01-21T01:59:13.597Z,807.40
2023-01-21T02:00:13.612Z,807.39
2023-01-21T02:01:13.599Z,807.34
2023-01-21T02:02:13.605Z,807.35
2023-01-21T02:03:13.587Z,807.33
2023-01-21T02:04:13.593Z,807.36
2023-01-21T02:05:13.571Z,807.36
2023-01-21T02:06:13.567Z,807.39
2023-01-21T02:07:13.563Z,807.33
2023-01-21T02:08:13.554Z,807.31
2023-01-21T02:09:13.551Z,807.32
2023-01-21T02:10:13.565Z,807.32
2023-01-21T02:11:13.566Z,807.34
2023-01-21T02:12:13.537Z,807.33
2023-01-21T02:13:13.536Z,807.34
2023-01-21T02:14:13.529Z,807.34
2023-01-21T02:15:13.528Z,807.36
2023-01-21T02:16:13.586Z,807.33
2023-01-21T02:17:13.518Z,807.34
2023-01-21T02:18:13.516Z,807.37
2023-01-21T02:19:13.517Z,807.35
2023-01-21T02:20:13.517Z,807.31
2023-01-21T02:21:13.503Z,807.36
2023-01-21T02:22:13.522Z,807.30
2023-01-21T02:23:13.500Z,807.37
2023-01-21T02:24:13.493Z,807.40
2023-01-21T02:25:13.490Z,807.39
2023-01-21T02:26:13.477Z,807.37
2023-01-21T02:27:13.506Z,807.42
2023-01-21T02:28:13.636Z,807.38
2023-01-21T02:29:13.480Z,807.42
2023-01-21T02:30:13.476Z,807.38
2023-01-21T02:31:13.581Z,807.39
2023-01-21T02:32:13.467Z,807.40
2023-01-21T02:33:13.464Z,807.39
2023-01-21T02:34:13.446Z,807.39
2023-01-21T02:35:13.447Z,807.39
2023-01-21T02:36:13.447Z,807.38
2023-01-21T02:37:13.440Z,807.34
2023-01-21T02:38:13.443Z,807.36
2023-01-21T02:39:13.432Z,807.34
2023-01-21T02:40:13.422Z,807.36
2023-01-21T02:41:13.422Z,807.35
2023-01-21T02:42:13.418Z,807.33
2023-01-21T02:43:13.435Z,807.32
2023-01-21T02:44:13.406Z,807.28
2023-01-21T02:45:13.407Z,807.30
2023-01-21T02:46:13.430Z,807.32
2023-01-21T02:47:13.398Z,807.31
2023-01-21T02:48:13.391Z,807.30
2023-01-21T02:49:13.387Z,807.28
2023-01-21T02:50:13.385Z,807.28
2023-01-21T02:51:13.501Z,807.29
2023-01-21T02:52:13.376Z,807.30
2023-01-21T02:53:13.373Z,807.29
2023-01-21T02:54:13.367Z,807.28
2023-01-21T02:55:13.363Z,807.25
2023-01-21T02:56:13.361Z,807.24
2023-01-21T02:57:13.361Z,807.26
2023-01-21T02:58:13.354Z,807.22
2023-01-21T02:59:13.398Z,807.25
2023-01-21T03:00:13.355Z,807.21
2023-01-21T03:01:13.421Z,807.20
2023-01-21T03:02:13.435Z,807.20
2023-01-21T03:03:13.388Z,807.20
2023-01-21T03:04:13.335Z,807.17
2023-01-21T03:05:13.329Z,807.17
2023-01-21T03:06:13.315Z,807.14
2023-01-21T03:07:13.325Z,807.14
2023-01-21T03:08:13.315Z,807.08
2023-01-21T03:09:13.308Z,807.10
2023-01-21T03:10:13.310Z,807.15
2023-01-21T03:11:13.305Z,807.09
2023-01-21T03:12:13.292Z,807.11
2023-01-21T03:13:13.301Z,807.03
2023-01-21T03:14:13.284Z,807.02
2023-01-21T03:15:13.309Z,807.04
2023-01-21T03:16:13.314Z,807.03
2023-01-21T03:17:13.293Z,806.97
2023-01-21T03:18:13.267Z,807.02
2023-01-21T03:19:13.263Z,806.98
2023-01-21T03:20:13.256Z,806.99
2023-01-21T03:21:13.271Z,806.98
2023-01-21T03:22:13.247Z,806.96
2023-01-21T03:23:13.245Z,806.93
2023-01-21T03:24:13.242Z,806.93
2023-01-21T03:25:13.235Z,806.97
2023-01-21T03:26:13.237Z,806.95
2023-01-21T03:27:13.229Z,806.95
2023-01-21T03:28:13.219Z,806.91
2023-01-21T03:29:13.218Z,806.97
2023-01-21T03:30:13.225Z,806.95
2023-01-21T03:31:13.407Z,806.99
2023-01-21T03:32:13.204Z,806.98
2023-01-21T03:33:13.204Z,806.98
2023-01-21T03:34:13.193Z,806.93
2023-01-21T03:35:13.191Z,806.91
2023-01-21T03:36:13.193Z,806.94
2023-01-21T03:37:13.185Z,806.96
2023-01-21T03:38:13.175Z,806.90
2023-01-21T03:39:13.169Z,806.85
2023-01-21T03:40:13.168Z,806.87
2023-01-21T03:41:13.167Z,806.81
2023-01-21T03:42:13.176Z,806.86
2023-01-21T03:43:13.157Z,806.81
2023-01-21T03:44:13.150Z,806.85
2023-01-21T03:45:13.148Z,806.83
2023-01-21T03:46:13.142Z,806.78
2023-01-21T03:47:13.367Z,806.77
2023-01-21T03:48:13.129Z,806.78
2023-01-21T03:49:13.121Z,806.81
2023-01-21T03:50:13.133Z,806.77
2023-01-21T03:51:13.168Z,806.76
2023-01-21T03:52:13.111Z,806.80
2023-01-21T03:53:13.103Z,806.81
2023-01-21T03:54:13.104Z,806.81
2023-01-21T03:55:13.098Z,806.74
2023-01-21T03:56:13.094Z,806.78
2023-01-21T03:57:13.098Z,806.80
2023-01-21T03:58:13.084Z,806.78
2023-01-21T03:59:13.076Z,806.79
2023-01-21T04:00:13.074Z,806.79
2023-01-21T04:01:13.095Z,806.75
2023-01-21T04:02:13.110Z,806.80
2023-01-21T04:03:13.179Z,806.76
2023-01-21T04:04:13.054Z,806.73
2023-01-21T04:05:13.050Z,806.76
2023-01-21T04:06:13.049Z,806.78
2023-01-21T04:07:13.040Z,806.80
2023-01-21T04:08:13.042Z,806.80
2023-01-21T04:09:13.081Z,806.78
2023-01-21T04:10:13.047Z,806.81
2023-01-21T04:11:13.020Z,806.81
2023-01-21T04:12:13.020Z,806.77
2023-01-21T04:13:13.012Z,806.75
2023-01-21T04:14:13.021Z,806.75
2023-01-21T04:15:13.004Z,806.79
2023-01-21T04:16:13.061Z,806.78
2023-01-21T04:17:12.997Z,806.77
2023-01-21T04:18:12.994Z,806.75
2023-01-21T04:19:13.003Z,806.73
2023-01-21T04:20:12.990Z,806.70
2023-01-21T04:21:12.989Z,806.72
2023-01-21T04:22:12.997Z,806.70
2023-01-21T04:23:12.976Z,806.68
2023-01-21T04:24:12.969Z,806.73
2023-01-21T04:25:12.973Z,806.74
2023-01-21T04:26:12.956Z,806.68
2023-01-21T04:27:12.955Z,806.70
2023-01-21T04:28:12.949Z,806.70
2023-01-21T04:29:12.942Z,806.68
2023-01-21T04:30:12.956Z,806.67
2023-01-21T04:31:12.931Z,806.69
2023-01-21T04:32:12.938Z,806.69
2023-01-21T04:33:12.930Z,806.64
2023-01-21T04:34:12.937Z,806.63
2023-01-21T04:35:12.959Z,806.67
2023-01-21T04:36:12.916Z,806.67
2023-01-21T04:37:12.923Z,806.67
2023-01-21T04:38:12.909Z,806.66
2023-01-21T04:39:12.901Z,806.68
2023-01-21T04:40:12.898Z,806.68
2023-01-21T04:41:12.896Z,806.68
2023-01-21T04:42:12.893Z,806.65
2023-01-21T04:43:12.878Z,806.72
2023-01-21T04:44:12.882Z,806.73
2023-01-21T04:45:12.885Z,806.72
2023-01-21T04:46:12.953Z,806.70
2023-01-21T04:47:12.868Z,806.67
2023-01-21T04:48:12.962Z,806.64
2023-01-21T04:49:12.867Z,806.64
2023-01-21T04:50:12.850Z,806.58
2023-01-21T04:51:12.929Z,806.62
2023-01-21T04:52:12.844Z,806.60
2023-01-21T04:53:12.838Z,806.61
2023-01-21T04:54:12.838Z,806.59
2023-01-21T04:55:12.833Z,806.59
2023-01-21T04:56:12.827Z,806.60
2023-01-21T04:57:12.816Z,806.54
2023-01-21T04:58:12.813Z,806.54
2023-01-21T04:59:12.804Z,806.52
2023-01-21T05:00:12.811Z,806.52
2023-01-21T05:01:12.926Z,806.49
2023-01-21T05:02:12.886Z,806.49
2023-01-21T05:03:12.786Z,806.49
2023-01-21T05:04:12.792Z,806.48
2023-01-21T05:05:12.798Z,806.48
2023-01-21T05:06:12.776Z,806.43
2023-01-21T05:07:12.809Z,806.45
2023-01-21T05:08:12.766Z,806.45
2023-01-21T05:09:12.775Z,806.48
2023-01-21T05:10:12.759Z,806.47
2023-01-21T05:11:12.773Z,806.45
2023-01-21T05:12:12.757Z,806.43
2023-01-21T05:13:12.738Z,806.43
2023-01-21T05:14:12.738Z,806.45
2023-01-21T05:15:12.745Z,806.43
2023-01-21T05:16:12.733Z,806.44
2023-01-21T05:17:12.728Z,806.44
2023-01-21T05:18:12.726Z,806.47
2023-01-21T05:19:12.749Z,806.48
2023-01-21T05:20:12.717Z,806.49
2023-01-21T05:21:12.701Z,806.50
2023-01-21T05:22:12.706Z,806.50
2023-01-21T05:23:12.710Z,806.50
2023-01-21T05:24:12.693Z,806.47
2023-01-21T05:25:12.695Z,806.47
2023-01-21T05:26:12.690Z,806.47
2023-01-21T05:27:12.690Z,806.49
2023-01-21T05:28:12.677Z,806.48
2023-01-21T05:29:12.677Z,806.50
2023-01-21T05:30:12.672Z,806.49
2023-01-21T05:31:12.744Z,806.47
2023-01-21T05:32:12.658Z,806.44
2023-01-21T05:33:12.653Z,806.47
2023-01-21T05:34:12.647Z,806.49
2023-01-21T05:35:12.637Z,806.42
2023-01-21T05:36:12.643Z,806.43
2023-01-21T05:37:12.635Z,806.43
2023-01-21T05:38:12.627Z,806.42
2023-01-21T05:39:12.644Z,806.42
2023-01-21T05:40:12.619Z,806.39
2023-01-21T05:41:12.613Z,806.41
2023-01-21T05:42:12.610Z,806.42
2023-01-21T05:43:12.605Z,806.48
2023-01-21T05:44:12.599Z,806.43
2023-01-21T05:45:12.598Z,806.48
2023-01-21T05:46:12.648Z,806.41
2023-01-21T05:47:12.591Z,806.44
2023-01-21T05:48:12.580Z,806.40
2023-01-21T05:49:12.576Z,806.41
2023-01-21T05:50:12.599Z,806.40
2023-01-21T05:51:12.641Z,806.37
2023-01-21T05:52:12.563Z,806.35
2023-01-21T05:53:12.562Z,806.35
2023-01-21T05:54:12.552Z,806.30
2023-01-21T05:55:12.620Z,806.35
2023-01-21T05:56:12.552Z,806.31
2023-01-21T05:57:12.539Z,806.35
2023-01-21T05:58:12.533Z,806.35
2023-01-21T05:59:12.528Z,806.34
2023-01-21T06:00:12.530Z,806.36
2023-01-21T06:01:12.527Z,806.38
2023-01-21T06:02:12.564Z,806.35
2023-01-21T06:03:12.509Z,806.34
2023-01-21T06:04:12.515Z,806.34
2023-01-21T06:05:12.499Z,806.28
2023-01-21T06:06:12.506Z,806.32
2023-01-21T06:07:12.487Z,806.33
2023-01-21T06:08:12.500Z,806.33
2023-01-21T06:09:12.478Z,806.32
2023-01-21T06:10:12.478Z,806.34
2023-01-21T06:11:12.493Z,806.32
2023-01-21T06:12:12.469Z,806.34
2023-01-21T06:13:12.461Z,806.38
2023-01-21T06:14:12.460Z,806.34
2023-01-21T06:15:12.452Z,806.34
2023-01-21T06:16:12.519Z,806.34
2023-01-21T06:17:12.444Z,806.36
2023-01-21T06:18:12.445Z,806.34
2023-01-21T06:19:12.436Z,806.33
2023-01-21T06:20:12.436Z,806.34
2023-01-21T06:21:12.522Z,806.37
2023-01-21T06:22:12.422Z,806.37
2023-01-21T06:23:12.432Z,806.39
2023-01-21T06:24:12.413Z,806.39
2023-01-21T06:25:12.404Z,806.41
2023-01-21T06:26:12.402Z,806.41
2023-01-21T06:27:12.418Z,806.37
2023-01-21T06:28:12.397Z,806.40
2023-01-21T06:29:12.387Z,806.38
2023-01-21T06:30:12.391Z,806.37
2023-01-21T06:31:12.509Z,806.40
2023-01-21T06:32:12.380Z,806.44
2023-01-21T06:33:12.367Z,806.40
2023-01-21T06:34:12.370Z,806.47
2023-01-21T06:35:12.359Z,806.45
2023-01-21T06:36:12.359Z,806.42
2023-01-21T06:37:12.348Z,806.42
2023-01-21T06:38:12.351Z,806.43
2023-01-21T06:39:12.346Z,806.44
2023-01-21T06:40:12.345Z,806.46
2023-01-21T06:41:12.334Z,806.43
2023-01-21T06:42:12.331Z,806.43
2023-01-21T06:43:12.357Z,806.43
2023-01-21T06:44:12.326Z,806.43
2023-01-21T06:45:12.315Z,806.42
2023-01-21T06:46:12.348Z,806.40
2023-01-21T06:47:12.304Z,806.42
2023-01-21T06:48:12.408Z,806.42
2023-01-21T06:49:12.353Z,806.44
2023-01-21T06:50:12.292Z,806.40
2023-01-21T06:51:12.332Z,806.40
2023-01-21T06:52:12.288Z,806.41
2023-01-21T06:53:12.284Z,806.44
2023-01-21T06:54:12.278Z,806.41
2023-01-21T06:55:12.296Z,806.43
2023-01-21T06:56:12.269Z,806.44
2023-01-21T06:57:12.271Z,806.46
2023-01-21T06:58:12.266Z,806.47
2023-01-21T06:59:12.281Z,806.47
2023-01-21T07:00:12.276Z,806.44
2023-01-21T07:01:12.271Z,806.44
2023-01-21T07:02:12.241Z,806.42
2023-01-21T07:03:12.234Z,806.43
2023-01-21T07:04:12.229Z,806.42
2023-01-21T07:05:12.223Z,806.47
2023-01-21T07:06:12.236Z,806.40
2023-01-21T07:07:12.222Z,806.47
2023-01-21T07:08:12.223Z,806.44
2023-01-21T07:09:12.207Z,806.46
2023-01-21T07:10:12.216Z,806.45
2023-01-21T07:11:12.220Z,806.49
2023-01-21T07:12:12.209Z,806.45
2023-01-21T07:13:12.216Z,806.44
2023-01-21T07:14:12.191Z,806.44
2023-01-21T07:15:12.204Z,806.43
2023-01-21T07:16:12.267Z,806.48
2023-01-21T07:17:12.173Z,806.50
2023-01-21T07:18:12.183Z,806.48
2023-01-21T07:19:12.160Z,806.50
2023-01-21T07:20:12.166Z,806.56
2023-01-21T07:21:12.153Z,806.51
2023-01-21T07:22:12.156Z,806.53
2023-01-21T07:23:12.144Z,806.52
2023-01-21T07:24:12.146Z,806.55
2023-01-21T07:25:12.148Z,806.53
2023-01-21T07:26:12.134Z,806.54
2023-01-21T07:27:12.138Z,806.49
2023-01-21T07:28:12.137Z,806.52
2023-01-21T07:29:12.116Z,806.50
2023-01-21T07:30:12.126Z,806.50
2023-01-21T07:31:12.239Z,806.46
2023-01-21T07:32:12.117Z,806.49
2023-01-21T07:33:12.101Z,806.50
2023-01-21T07:34:12.102Z,806.49
2023-01-21T07:35:12.091Z,806.48
2023-01-21T07:36:12.095Z,806.50
2023-01-21T07:37:12.081Z,806.50
2023-01-21T07:38:12.180Z,806.52
2023-01-21T07:39:12.073Z,806.49
2023-01-21T07:40:12.077Z,806.50
2023-01-21T07:41:12.064Z,806.52
2023-01-21T07:42:12.065Z,806.50
2023-01-21T07:43:12.057Z,806.53
2023-01-21T07:44:12.054Z,806.52
2023-01-21T07:45:12.050Z,806.52
2023-01-21T07:46:12.089Z,806.53
2023-01-21T07:47:12.066Z,806.50
2023-01-21T07:48:12.046Z,806.47
2023-01-21T07:49:12.038Z,806.48
2023-01-21T07:50:12.024Z,806.47
2023-01-21T07:51:12.161Z,806.43
2023-01-21T07:52:12.015Z,806.51
2023-01-21T07:53:12.020Z,806.52
2023-01-21T07:54:12.019Z,806.48
2023-01-21T07:55:12.792Z,806.49
2023-01-21T07:56:12.002Z,806.49
2023-01-21T07:57:12.104Z,806.45
2023-01-21T07:58:11.991Z,806.47
2023-01-21T07:59:11.996Z,806.48
2023-01-21T08:00:11.990Z,806.47
2023-01-21T08:01:11.990Z,806.52
2023-01-21T08:02:12.138Z,806.50
2023-01-21T08:03:11.994Z,806.53
2023-01-21T08:04:11.977Z,806.52
2023-01-21T08:05:11.973Z,806.50
2023-01-21T08:06:11.957Z,806.52
2023-01-21T08:07:13.243Z,806.52
2023-01-21T08:08:11.953Z,806.51
2023-01-21T08:09:11.949Z,806.55
2023-01-21T08:10:11.996Z,806.50
2023-01-21T08:11:11.948Z,806.48
2023-01-21T08:12:11.941Z,806.50
2023-01-21T08:13:11.928Z,806.55
2023-01-21T08:14:11.926Z,806.53
2023-01-21T08:15:11.948Z,806.51
2023-01-21T08:16:12.024Z,806.49
2023-01-21T08:17:11.918Z,806.52
2023-01-21T08:18:11.914Z,806.49
2023-01-21T08:19:13.884Z,806.53
2023-01-21T08:20:11.913Z,806.54
2023-01-21T08:21:11.920Z,806.55
2023-01-21T08:22:11.891Z,806.51
2023-01-21T08:23:11.889Z,806.52
2023-01-21T08:24:11.882Z,806.54
2023-01-21T08:25:11.880Z,806.57
2023-01-21T08:26:11.876Z,806.54
2023-01-21T08:27:11.870Z,806.54
2023-01-21T08:28:11.864Z,806.51
2023-01-21T08:29:11.867Z,806.56
2023-01-21T08:30:11.864Z,806.55
2023-01-21T08:31:11.973Z,806.58
2023-01-21T08:32:11.853Z,806.58
2023-01-21T08:33:11.845Z,806.60
2023-01-21T08:34:11.843Z,806.62
2023-01-21T08:35:11.861Z,806.63
2023-01-21T08:36:11.835Z,806.59
2023-01-21T08:37:11.826Z,806.65
2023-01-21T08:38:11.823Z,806.60
2023-01-21T08:39:11.820Z,806.66
2023-01-21T08:40:11.819Z,806.66
2023-01-21T08:41:11.816Z,806.68
2023-01-21T08:42:11.810Z,806.71
2023-01-21T08:43:11.803Z,806.74
2023-01-21T08:44:11.797Z,806.67
2023-01-21T08:45:13.769Z,806.72
2023-01-21T08:46:11.842Z,806.70
2023-01-21T08:47:11.787Z,806.70
2023-01-21T08:48:11.781Z,806.67
2023-01-21T08:49:11.785Z,806.66
2023-01-21T08:50:11.781Z,806.67
2023-01-21T08:51:11.835Z,806.69
2023-01-21T08:52:11.867Z,806.72
2023-01-21T08:53:11.767Z,806.72
2023-01-21T08:54:11.759Z,806.72
2023-01-21T08:55:11.760Z,806.71
2023-01-21T08:56:11.756Z,806.74
2023-01-21T08:57:11.758Z,806.69
2023-01-21T08:58:11.751Z,806.68
2023-01-21T08:59:11.755Z,806.68
2023-01-21T09:00:11.739Z,806.66
2023-01-21T09:01:11.783Z,806.71
2023-01-21T09:02:11.809Z,806.70
2023-01-21T09:03:11.735Z,806.68
2023-01-21T09:04:11.735Z,806.72
2023-01-21T09:05:11.732Z,806.74
2023-01-21T09:06:11.743Z,806.74
2023-01-21T09:07:11.744Z,806.73
2023-01-21T09:08:11.715Z,806.74
2023-01-21T09:09:11.722Z,806.74
2023-01-21T09:10:11.713Z,806.79
2023-01-21T09:11:11.711Z,806.77
2023-01-21T09:12:11.706Z,806.79
2023-01-21T09:13:11.705Z,806.79
2023-01-21T09:14:11.701Z,806.83
2023-01-21T09:15:11.699Z,806.87
2023-01-21T09:16:11.760Z,806.89
2023-01-21T09:17:11.696Z,806.86
2023-01-21T09:18:11.696Z,806.85
2023-01-21T09:19:11.692Z,806.85
2023-01-21T09:20:11.682Z,806.89
2023-01-21T09:21:11.688Z,806.90
2023-01-21T09:22:11.685Z,806.85
2023-01-21T09:23:11.699Z,806.84
2023-01-21T09:24:11.674Z,806.82
2023-01-21T09:25:11.679Z,806.84
2023-01-21T09:26:11.669Z,806.88
2023-01-21T09:27:11.670Z,806.84
2023-01-21T09:28:11.666Z,806.80
2023-01-21T09:29:11.674Z,806.80
2023-01-21T09:30:11.661Z,806.84
2023-01-21T09:31:11.665Z,806.86
2023-01-21T09:32:11.663Z,806.85
2023-01-21T09:33:11.664Z,806.88
2023-01-21T09:34:11.682Z,806.83
2023-01-21T09:35:11.657Z,806.84
2023-01-21T09:36:11.653Z,806.80
2023-01-21T09:37:11.650Z,806.80
2023-01-21T09:38:11.645Z,806.80
2023-01-21T09:39:11.689Z,806.87
2023-01-21T09:40:11.647Z,806.89
2023-01-21T09:41:11.646Z,806.91
2023-01-21T09:42:11.681Z,806.95
2023-01-21T09:43:11.641Z,806.94
2023-01-21T09:44:11.635Z,806.95
2023-01-21T09:45:11.634Z,806.96
2023-01-21T09:46:11.729Z,806.91
2023-01-21T09:47:11.736Z,806.94
2023-01-21T09:48:11.642Z,806.93
2023-01-21T09:49:11.625Z,806.95
2023-01-21T09:50:11.641Z,806.94
2023-01-21T09:51:11.703Z,806.98
2023-01-21T09:52:11.620Z,806.90
2023-01-21T09:53:11.630Z,806.92
2023-01-21T09:54:11.618Z,806.95
2023-01-21T09:55:11.642Z,806.89
2023-01-21T09:56:11.615Z,806.91
2023-01-21T09:57:11.619Z,806.90
2023-01-21T09:58:11.627Z,806.84
2023-01-21T09:59:11.615Z,806.87
2023-01-21T10:00:11.611Z,806.85
2023-01-21T10:01:11.701Z,806.82
2023-01-21T10:02:11.606Z,806.84
2023-01-21T10:03:11.615Z,806.83
2023-01-21T10:04:11.636Z,806.78
2023-01-21T10:05:11.607Z,806.79
2023-01-21T10:06:11.602Z,806.80
2023-01-21T10:07:11.627Z,806.77
2023-01-21T10:08:11.596Z,806.80
2023-01-21T10:09:11.612Z,806.81
2023-01-21T10:10:11.600Z,806.80
2023-01-21T10:11:11.618Z,806.77
2023-01-21T10:12:11.602Z,806.79
2023-01-21T10:13:11.603Z,806.81
2023-01-21T10:14:11.588Z,806.80
2023-01-21T10:15:11.590Z,806.78
2023-01-21T10:16:11.601Z,806.79
2023-01-21T10:17:11.594Z,806.77
2023-01-21T10:18:11.591Z,806.78
2023-01-21T10:19:11.586Z,806.81
2023-01-21T10:20:11.581Z,806.79
2023-01-21T10:21:11.583Z,806.80
2023-01-21T10:22:11.585Z,806.76
2023-01-21T10:23:11.581Z,806.73
2023-01-21T10:24:11.581Z,806.79
2023-01-21T10:25:11.595Z,806.75
2023-01-21T10:26:11.575Z,806.72
2023-01-21T10:27:11.598Z,806.70
2023-01-21T10:28:11.573Z,806.71
2023-01-21T10:29:11.575Z,806.75
2023-01-21T10:30:11.572Z,806.68
2023-01-21T10:31:11.706Z,806.70
2023-01-21T10:32:11.572Z,806.70
2023-01-21T10:33:11.574Z,806.71
2023-01-21T10:34:11.574Z,806.73
2023-01-21T10:35:11.572Z,806.65
2023-01-21T10:36:11.575Z,806.65
2023-01-21T10:37:11.573Z,806.67
2023-01-21T10:38:11.574Z,806.71
2023-01-21T10:39:11.572Z,806.72
2023-01-21T10:40:11.568Z,806.67
2023-01-21T10:41:11.572Z,806.64
2023-01-21T10:42:11.568Z,806.66
2023-01-21T10:43:11.593Z,806.71
2023-01-21T10:44:11.590Z,806.74
2023-01-21T10:45:11.578Z,806.64
2023-01-21T10:46:11.585Z,806.68
2023-01-21T10:47:11.596Z,806.69
2023-01-21T10:48:11.585Z,806.71
2023-01-21T10:49:11.581Z,806.70
2023-01-21T10:50:11.569Z,806.69
2023-01-21T10:51:11.620Z,806.65
2023-01-21T10:52:11.571Z,806.71
2023-01-21T10:53:11.575Z,806.67
2023-01-21T10:54:11.583Z,806.62
2023-01-21T10:55:11.585Z,806.64
2023-01-21T10:56:11.576Z,806.59
2023-01-21T10:57:11.578Z,806.66
2023-01-21T10:58:11.637Z,806.62
2023-01-21T10:59:11.605Z,806.54
2023-01-21T11:00:11.576Z,806.55
2023-01-21T11:01:11.592Z,806.56
2023-01-21T11:02:11.601Z,806.58
2023-01-21T11:03:11.582Z,806.54
2023-01-21T11:04:11.623Z,806.61
2023-01-21T11:05:11.588Z,806.61
2023-01-21T11:06:11.588Z,806.56
2023-01-21T11:07:11.592Z,806.55
2023-01-21T11:08:11.589Z,806.56
2023-01-21T11:09:11.684Z,806.55
2023-01-21T11:10:11.584Z,806.57
2023-01-21T11:11:11.592Z,806.59
2023-01-21T11:12:11.592Z,806.58
2023-01-21T11:13:11.595Z,806.58
2023-01-21T11:14:11.606Z,806.55
2023-01-21T11:15:11.619Z,806.56
2023-01-21T11:16:11.711Z,806.57
2023-01-21T11:17:11.596Z,806.57
2023-01-21T11:18:11.594Z,806.62
2023-01-21T11:19:11.600Z,806.59
2023-01-21T11:20:11.599Z,806.54
2023-01-21T11:21:11.601Z,806.60
2023-01-21T11:22:11.599Z,806.60
2023-01-21T11:23:11.605Z,806.56
2023-01-21T11:24:11.609Z,806.53
2023-01-21T11:25:11.606Z,806.53
2023-01-21T11:26:11.605Z,806.50
2023-01-21T11:27:11.609Z,806.56
2023-01-21T11:28:11.611Z,806.54
2023-01-21T11:29:11.623Z,806.44
2023-01-21T11:30:31.663Z,806.41
2023-01-21T11:31:11.775Z,806.38
2023-01-21T11:32:11.723Z,806.43
2023-01-21T11:33:11.622Z,806.41
2023-01-21T11:34:11.619Z,806.42
2023-01-21T11:35:11.661Z,806.45
2023-01-21T11:36:11.643Z,806.45
2023-01-21T11:37:11.635Z,806.50
2023-01-21T11:38:11.629Z,806.49
2023-01-21T11:39:11.634Z,806.47
2023-01-21T11:40:11.641Z,806.45
2023-01-21T11:41:11.644Z,806.43
2023-01-21T11:42:11.638Z,806.47
2023-01-21T11:43:11.642Z,806.45
2023-01-21T11:44:11.643Z,806.41
2023-01-21T11:45:11.670Z,806.39
2023-01-21T11:46:11.704Z,806.42
2023-01-21T11:47:11.672Z,806.41
2023-01-21T11:48:11.652Z,806.39
2023-01-21T11:49:11.655Z,806.32
2023-01-21T11:50:11.655Z,806.33
2023-01-21T11:51:11.716Z,806.34
2023-01-21T11:52:11.661Z,806.37
2023-01-21T11:53:11.683Z,806.39
2023-01-21T11:54:11.663Z,806.33
2023-01-21T11:55:11.669Z,806.37
2023-01-21T11:56:11.674Z,806.38
2023-01-21T11:57:11.674Z,806.41
2023-01-21T11:58:11.672Z,806.38
2023-01-21T11:59:11.679Z,806.43
2023-01-21T12:00:11.675Z,806.36
2023-01-21T12:01:11.681Z,806.30
2023-01-21T12:02:11.681Z,806.34
2023-01-21T12:03:11.706Z,806.29
2023-01-21T12:04:11.692Z,806.34
2023-01-21T12:05:11.704Z,806.32
2023-01-21T12:06:11.689Z,806.34
2023-01-21T12:07:11.688Z,806.28
2023-01-21T12:08:11.695Z,806.30
2023-01-21T12:09:11.700Z,806.27
2023-01-21T12:10:11.708Z,806.27
2023-01-21T12:11:11.703Z,806.28
2023-01-21T12:12:11.857Z,806.29
2023-01-21T12:13:11.702Z,806.21
2023-01-21T12:14:11.719Z,806.22
2023-01-21T12:15:11.710Z,806.22
2023-01-21T12:16:11.757Z,806.24
2023-01-21T12:17:11.720Z,806.24
2023-01-21T12:18:11.720Z,806.20
2023-01-21T12:19:11.746Z,806.18
2023-01-21T12:20:11.881Z,806.16
2023-01-21T12:21:11.736Z,806.15
2023-01-21T12:22:11.748Z,806.17
2023-01-21T12:23:11.758Z,806.10
2023-01-21T12:24:11.735Z,806.09
2023-01-21T12:25:11.735Z,806.08
2023-01-21T12:26:11.737Z,806.07
2023-01-21T12:27:11.780Z,806.02
2023-01-21T12:28:11.773Z,806.08